Time;durP1;ratioP1;P1;durP2;ratioP2;P2;SDS_P1;SDS_P2;PMS_P1;PMS_P2;Temp;Humidity;BMP_temperature;BMP_pressure;BME280_temperature;BME280_humidity;BME280_pressure;Samples;Min_cycle;Max_cycle;Signal;HPM_P1;HPM_P2
2022/05/09 03:58:31;;;;;;;1.40;1.30;;;;;;;13.29;88.94;101080.91;6475457;26;20212;-86
2022/05/09 04:01:34;;;;;;;2.15;1.48;;;;;;;13.34;89.12;101083.94;6555375;27;33756;-87
2022/05/09 04:04:37;;;;;;;1.83;1.62;;;;;;;13.51;88.26;101086.53;6587307;27;34067;-87
2022/05/09 04:07:40;;;;;;;1.50;1.40;;;;;;;13.61;88.16;101089.84;6590884;27;34024;-87
2022/05/09 04:10:45;;;;;;;1.67;1.58;;;;;;;13.78;86.87;101091.41;6589038;27;33593;-87
2022/05/09 04:13:47;;;;;;;1.12;1.02;;;;;;;13.88;86.57;101088.44;6591947;27;35298;-86
2022/05/09 04:16:52;;;;;;;1.00;1.00;;;;;;;14.03;85.08;101096.59;6556912;27;32148;-86
2022/05/09 04:19:54;;;;;;;1.20;1.10;;;;;;;14.14;83.87;101088.03;6575570;27;34452;-86
2022/05/09 04:22:59;;;;;;;1.02;0.93;;;;;;;14.24;83.14;101101.31;6575009;27;35596;-86
2022/05/09 04:26:02;;;;;;;1.50;1.02;;;;;;;14.37;82.63;101092.56;6556096;27;32189;-86
2022/05/09 04:29:05;;;;;;;1.50;1.23;;;;;;;14.49;82.29;101104.63;6575871;27;33665;-87
2022/05/09 04:32:08;;;;;;;0.77;0.77;;;;;;;14.66;80.29;101105.31;6576381;27;34022;-86
2022/05/09 04:35:20;;;;;;;1.05;0.98;;;;;;;14.77;79.84;101104.00;6556162;27;33057;-86
2022/05/09 04:38:23;;;;;;;1.75;1.15;;;;;;;14.92;79.76;101110.28;6557458;27;32325;-86
2022/05/09 04:41:27;;;;;;;0.95;0.93;;;;;;;15.00;78.69;101112.84;6576700;27;33799;-86
2022/05/09 04:44:29;;;;;;;0.98;0.93;;;;;;;15.14;78.14;101112.00;6575184;27;34071;-86
2022/05/09 04:47:32;;;;;;;0.90;0.90;;;;;;;15.40;76.92;101105.22;6576008;27;34095;-86
2022/05/09 04:50:35;;;;;;;0.82;0.82;;;;;;;15.36;76.71;101110.19;6577927;27;34646;-86
2022/05/09 04:53:38;;;;;;;1.23;0.68;;;;;;;15.41;76.46;101106.88;6556735;27;32453;-87
2022/05/09 04:56:41;;;;;;;1.27;0.93;;;;;;;15.47;76.35;101099.84;6558915;27;32283;-86
2022/05/09 04:59:46;;;;;;;1.58;1.48;;;;;;;15.60;76.30;101100.00;6583506;27;34674;-86
2022/05/09 05:02:49;;;;;;;0.82;0.82;;;;;;;15.55;75.78;101108.72;6565678;27;32773;-86
2022/05/09 05:05:52;;;;;;;0.70;0.70;;;;;;;15.56;76.17;101102.28;6594099;27;34900;-86
2022/05/09 05:08:55;;;;;;;0.37;0.37;;;;;;;15.63;76.65;101105.88;6583219;26;34178;-86
2022/05/09 05:11:58;;;;;;;0.70;0.70;;;;;;;15.75;76.16;101113.53;6556316;27;32342;-86
2022/05/09 05:15:01;;;;;;;0.80;0.57;;;;;;;15.85;75.36;101114.03;6576291;27;34716;-86
2022/05/09 05:18:04;;;;;;;0.40;0.40;;;;;;;15.99;74.03;101109.59;6576714;27;34708;-87
2022/05/09 05:21:12;;;;;;;0.77;0.77;;;;;;;16.13;73.50;101111.37;6576159;27;34324;-90
2022/05/09 05:24:15;;;;;;;0.37;0.37;;;;;;;16.17;73.21;101118.09;6575194;27;34640;-91
2022/05/09 05:27:19;;;;;;;0.40;0.40;;;;;;;16.30;72.94;101114.66;6556157;27;33342;-87
2022/05/09 05:30:22;;;;;;;2.08;0.60;;;;;;;16.51;70.71;101116.47;6555820;27;32776;-87
2022/05/09 05:33:25;;;;;;;0.22;0.22;;;;;;;16.67;70.39;101120.75;6572453;27;34648;-87
2022/05/09 05:36:28;;;;;;;0.10;0.10;;;;;;;16.90;69.67;101118.59;6577024;27;35021;-87
2022/05/09 05:39:34;;;;;;;0.10;0.10;;;;;;;17.02;68.12;101115.31;6578297;27;33936;-87
2022/05/09 05:42:39;;;;;;;0.10;0.10;;;;;;;17.11;67.76;101123.12;6556200;27;33237;-87
2022/05/09 05:45:41;;;;;;;0.20;0.20;;;;;;;17.33;66.88;101125.72;6576374;27;33816;-87
2022/05/09 05:48:45;;;;;;;0.30;0.30;;;;;;;17.52;66.12;101127.66;6576119;27;34661;-87
2022/05/09 05:51:48;;;;;;;0.32;0.32;;;;;;;17.69;65.34;101126.22;6555153;27;33589;-87
2022/05/09 05:54:51;;;;;;;0.20;0.20;;;;;;;17.71;64.50;101125.19;6554036;27;34187;-87
2022/05/09 05:57:55;;;;;;;0.45;0.45;;;;;;;17.80;64.57;101135.72;6556370;27;34149;-87
2022/05/09 06:00:58;;;;;;;0.52;0.50;;;;;;;17.98;64.35;101137.81;6564754;27;33232;-87
2022/05/09 06:04:01;;;;;;;0.32;0.32;;;;;;;18.14;63.68;101142.03;6555592;27;32366;-87
2022/05/09 06:07:04;;;;;;;0.28;0.28;;;;;;;18.21;64.41;101142.03;6574880;27;34390;-87
2022/05/09 06:10:08;;;;;;;0.65;0.65;;;;;;;18.23;63.89;101142.69;6554705;27;32760;-87
2022/05/09 06:13:11;;;;;;;0.30;0.30;;;;;;;18.45;63.02;101141.38;6575044;27;34109;-86
2022/05/09 06:16:14;;;;;;;0.15;0.15;;;;;;;18.64;62.62;101145.16;6575236;27;34815;-85
2022/05/09 06:19:17;;;;;;;0.40;0.40;;;;;;;18.83;61.70;101148.09;6573777;27;33455;-86
2022/05/09 06:22:20;;;;;;;0.62;0.62;;;;;;;18.96;60.97;101145.34;6553868;27;33578;-86
2022/05/09 06:25:23;;;;;;;2.45;0.85;;;;;;;19.18;60.26;101145.87;6554650;27;34565;-86
2022/05/09 06:28:26;;;;;;;0.17;0.17;;;;;;;19.27;58.64;101147.31;6555498;27;33720;-86
2022/05/09 06:31:29;;;;;;;0.10;0.10;;;;;;;19.49;57.99;101150.56;6555590;27;33680;-86
2022/05/09 06:34:33;;;;;;;0.20;0.20;;;;;;;19.56;57.79;101150.53;6554602;27;32346;-85
2022/05/09 06:37:38;;;;;;;0.68;0.35;;;;;;;19.72;55.92;101151.97;6555747;27;33406;-85
2022/05/09 06:40:42;;;;;;;0.40;0.40;;;;;;;19.92;55.67;101147.22;6576949;27;34427;-85
2022/05/09 06:43:47;;;;;;;0.20;0.20;;;;;;;20.07;55.45;101145.00;6560532;27;32254;-86
2022/05/09 06:46:55;;;;;;;0.15;0.15;;;;;;;20.57;54.59;101145.00;6571748;27;33083;-86
2022/05/09 06:50:02;;;;;;;0.13;0.13;;;;;;;20.78;52.54;101148.38;6584482;27;34285;-86
2022/05/09 06:53:08;;;;;;;0.30;0.30;;;;;;;20.86;52.25;101156.31;6560440;27;32386;-85
2022/05/09 06:56:18;;;;;;;0.22;0.22;;;;;;;21.02;51.75;101152.94;6558765;27;32525;-86
2022/05/09 06:59:21;;;;;;;0.10;0.10;;;;;;;20.97;52.18;101147.34;6556214;27;32770;-86
2022/05/09 07:02:24;;;;;;;0.00;0.00;;;;;;;20.84;52.36;101144.72;6554932;27;32610;-85
2022/05/09 07:05:28;;;;;;;0.30;0.30;;;;;;;20.95;52.28;101154.94;6554730;27;32610;-86
2022/05/09 07:08:32;;;;;;;0.20;0.20;;;;;;;21.03;52.99;101151.03;6575549;27;34285;-86
2022/05/09 07:11:38;;;;;;;1.00;0.57;;;;;;;21.24;53.29;101155.25;6554431;27;33603;-86
2022/05/09 07:14:41;;;;;;;0.13;0.13;;;;;;;21.29;52.36;101158.09;6574243;27;33732;-89
2022/05/09 07:17:47;;;;;;;0.20;0.20;;;;;;;21.42;52.33;101159.88;6554540;27;33061;-90
2022/05/09 07:20:49;;;;;;;0.25;0.25;;;;;;;21.54;52.19;101162.69;6557149;27;32715;-89
2022/05/09 07:23:53;;;;;;;0.20;0.20;;;;;;;21.76;51.82;101155.59;6576369;27;34549;-87
2022/05/09 07:26:56;;;;;;;0.10;0.10;;;;;;;21.72;50.91;101160.72;6555450;27;33740;-87
2022/05/09 07:29:59;;;;;;;0.17;0.17;;;;;;;21.78;50.50;101160.88;6575333;27;33867;-86
2022/05/09 07:33:03;;;;;;;0.32;0.32;;;;;;;21.85;50.35;101162.44;6554509;27;33688;-85
2022/05/09 07:36:06;;;;;;;0.20;0.20;;;;;;;22.04;50.25;101162.37;6574387;27;35294;-85
2022/05/09 07:39:08;;;;;;;0.20;0.20;;;;;;;22.19;49.20;101160.06;6557578;27;33316;-86
2022/05/09 07:42:11;;;;;;;0.20;0.20;;;;;;;22.25;49.26;101156.34;6561470;27;33850;-86
2022/05/09 07:45:18;;;;;;;0.55;0.55;;;;;;;22.19;48.30;101155.41;6557306;27;32258;-86
2022/05/09 07:48:22;;;;;;;0.10;0.10;;;;;;;22.54;47.70;101154.59;6582666;27;34030;-86
2022/05/09 07:51:25;;;;;;;0.47;0.45;;;;;;;22.50;47.66;101156.16;6576974;27;34677;-84
2022/05/09 07:54:28;;;;;;;0.47;0.47;;;;;;;22.47;47.13;101161.28;6558598;27;33273;-84
2022/05/09 07:57:30;;;;;;;0.13;0.13;;;;;;;22.22;46.38;101156.84;6557728;27;34459;-84
2022/05/09 08:00:33;;;;;;;0.28;0.28;;;;;;;22.48;46.42;101155.56;6575422;27;34471;-84
2022/05/09 08:03:39;;;;;;;1.45;0.43;;;;;;;22.61;45.38;101157.22;6577694;27;35247;-83
2022/05/09 08:06:42;;;;;;;0.47;0.35;;;;;;;22.86;44.39;101149.56;6557327;27;32988;-83
2022/05/09 08:09:45;;;;;;;0.40;0.40;;;;;;;23.19;44.47;101158.25;6577712;27;33915;-84
2022/05/09 08:12:48;;;;;;;0.08;0.08;;;;;;;23.53;42.83;101151.00;6577269;27;34095;-86
2022/05/09 08:15:52;;;;;;;0.10;0.10;;;;;;;23.62;43.87;101148.69;6555971;27;33211;-85
2022/05/09 08:18:54;;;;;;;1.25;0.93;;;;;;;23.79;42.23;101157.84;6557268;27;32627;-85
2022/05/09 08:21:57;;;;;;;0.15;0.15;;;;;;;23.91;41.61;101160.53;6576265;27;34058;-85
2022/05/09 08:25:04;;;;;;;0.08;0.08;;;;;;;24.24;40.31;101150.62;6555677;27;33836;-85
2022/05/09 08:28:08;;;;;;;0.10;0.10;;;;;;;24.01;38.59;101149.69;6579199;27;34349;-85
2022/05/09 08:31:13;;;;;;;0.40;0.40;;;;;;;23.73;39.37;101153.34;6557322;27;33627;-85
2022/05/09 08:34:16;;;;;;;0.10;0.10;;;;;;;23.63;40.50;101156.66;6555215;27;32709;-85
2022/05/09 08:37:19;;;;;;;0.62;0.62;;;;;;;23.77;40.38;101152.56;6577017;27;34506;-84
2022/05/09 08:40:42;;;;;;;0.10;0.10;;;;;;;23.60;39.01;101142.59;6575709;27;34028;-84
2022/05/09 08:44:16;;;;;;;0.10;0.10;;;;;;;23.82;38.47;101143.59;6582822;27;33699;-84
2022/05/09 08:47:49;;;;;;;0.25;0.25;;;;;;;23.98;38.42;101136.44;6574813;27;34774;-88
2022/05/09 08:51:09;;;;;;;0.20;0.20;;;;;;;24.12;38.49;101129.53;6576769;27;34438;-85
2022/05/09 08:54:19;;;;;;;0.30;0.30;;;;;;;24.29;38.78;101132.28;6576373;27;33645;-84
2022/05/09 08:57:36;;;;;;;0.20;0.20;;;;;;;24.28;38.08;101140.78;6558337;27;33718;-85
2022/05/09 09:00:39;;;;;;;0.65;0.65;;;;;;;24.26;37.84;101141.03;6576643;27;34871;-84
2022/05/09 09:03:52;;;;;;;0.10;0.10;;;;;;;24.49;38.64;101139.25;6577192;27;34163;-84
2022/05/09 09:07:13;;;;;;;0.88;0.65;;;;;;;24.49;37.13;101139.25;6560406;27;33073;-84
2022/05/09 09:10:24;;;;;;;0.10;0.10;;;;;;;24.51;36.62;101139.81;6591672;26;34583;-84
2022/05/09 09:13:55;;;;;;;0.32;0.32;;;;;;;24.49;37.03;101142.00;6557129;27;32455;-84
2022/05/09 09:17:05;;;;;;;0.32;0.32;;;;;;;24.90;37.47;101135.16;6556230;27;32611;-84
2022/05/09 09:20:32;;;;;;;0.20;0.20;;;;;;;25.09;35.66;101139.25;6557564;27;32685;-84
2022/05/09 09:23:53;;;;;;;0.52;0.52;;;;;;;25.38;35.24;101138.25;6587429;27;34877;-85
2022/05/09 09:27:33;;;;;;;0.30;0.30;;;;;;;25.50;35.46;101137.00;6586702;27;34217;-84
2022/05/09 09:30:38;;;;;;;0.03;0.03;;;;;;;25.14;35.49;101137.69;6577574;27;34139;-84
2022/05/09 09:33:56;;;;;;;0.13;0.13;;;;;;;25.21;36.88;101147.41;6577336;27;34286;-84
2022/05/09 09:37:25;;;;;;;0.10;0.10;;;;;;;25.21;34.89;101138.31;6563809;27;32483;-84
2022/05/09 09:40:28;;;;;;;0.03;0.03;;;;;;;25.05;35.70;101138.09;6576953;27;35010;-84
2022/05/09 09:43:30;;;;;;;0.57;0.57;;;;;;;24.96;35.34;101145.16;6557726;27;33653;-84
2022/05/09 09:46:54;;;;;;;0.40;0.40;;;;;;;24.97;35.37;101141.28;6556196;27;32881;-84
2022/05/09 09:50:12;;;;;;;0.75;0.75;;;;;;;25.08;35.65;101134.84;6556858;27;33042;-84
2022/05/09 09:53:30;;;;;;;0.45;0.45;;;;;;;24.92;34.93;101138.47;6578480;27;33746;-88
2022/05/09 09:56:34;;;;;;;0.17;0.17;;;;;;;25.02;35.34;101133.09;6578803;27;34975;-84
2022/05/09 09:59:37;;;;;;;0.15;0.15;;;;;;;25.01;36.50;101136.97;6577006;27;34203;-84
2022/05/09 10:02:41;;;;;;;0.30;0.30;;;;;;;25.26;35.32;101128.19;6576600;27;34002;-85
2022/05/09 10:05:47;;;;;;;0.25;0.25;;;;;;;26.15;34.41;101121.41;6558167;26;32446;-84
2022/05/09 10:08:58;;;;;;;0.20;0.20;;;;;;;25.97;34.73;101121.78;6576306;27;33938;-84
2022/05/09 10:12:25;;;;;;;0.20;0.20;;;;;;;25.91;35.21;101117.31;6558817;26;33606;-84
2022/05/09 10:15:35;;;;;;;0.65;0.20;;;;;;;26.59;34.82;101123.09;6578490;27;34106;-84
2022/05/09 10:18:39;;;;;;;0.35;0.35;;;;;;;27.03;33.77;101117.28;6559326;27;32713;-84
2022/05/09 10:25:26;;;;;;;0.20;0.20;;;;;;;27.01;33.04;101113.94;6576032;27;33951;-84
2022/05/09 10:28:37;;;;;;;0.28;0.28;;;;;;;27.36;33.54;101113.28;6554999;27;32547;-84
2022/05/09 10:31:57;;;;;;;0.30;0.30;;;;;;;27.79;31.05;101106.47;6559522;27;33539;-84
2022/05/09 10:35:06;;;;;;;0.65;0.25;;;;;;;27.93;30.35;101100.38;6575950;27;34949;-86
2022/05/09 10:38:17;;;;;;;0.20;0.20;;;;;;;28.26;30.30;101099.81;6559287;27;32550;-85
2022/05/09 10:41:59;;;;;;;0.43;0.15;;;;;;;28.27;29.10;101098.72;6582272;27;35372;-84
2022/05/09 10:45:12;;;;;;;0.15;0.15;;;;;;;27.66;30.19;101104.19;6575395;27;33667;-85
2022/05/09 10:48:18;;;;;;;0.30;0.30;;;;;;;27.57;30.12;101105.84;6576689;27;35317;-85
2022/05/09 10:51:33;;;;;;;0.40;0.40;;;;;;;27.20;29.82;101104.09;6555819;27;32234;-85
2022/05/09 10:55:03;;;;;;;0.47;0.47;;;;;;;26.85;30.76;101093.69;6557002;27;33059;-86
2022/05/09 10:58:26;;;;;;;0.55;0.55;;;;;;;27.01;30.79;101098.19;6554256;27;32270;-86
2022/05/09 11:01:36;;;;;;;0.73;0.73;;;;;;;27.40;29.91;101099.72;6575129;27;33923;-86
2022/05/09 11:04:40;;;;;;;0.50;0.50;;;;;;;27.48;29.94;101100.03;6553525;27;32542;-85
2022/05/09 11:07:55;;;;;;;0.68;0.68;;;;;;;27.29;30.99;101102.47;6576594;27;34472;-85
2022/05/09 11:11:04;;;;;;;0.60;0.50;;;;;;;27.43;31.57;101105.53;6576325;27;36059;-89
2022/05/09 11:14:10;;;;;;;;;;;;;;;27.41;31.82;101101.37;6555707;27;32823;-86
2022/05/09 11:17:13;;;;;;;0.35;0.35;;;;;;;27.72;30.89;101096.75;6555622;27;33538;-86
2022/05/09 11:20:35;;;;;;;0.70;0.43;;;;;;;28.16;29.77;101099.00;6575320;27;33898;-86
2022/05/09 11:23:48;;;;;;;0.70;0.70;;;;;;;28.51;29.75;101087.06;6576351;27;34011;-86
2022/05/09 11:27:04;;;;;;;0.93;0.60;;;;;;;28.31;30.14;101089.84;6564005;27;33288;-86
2022/05/09 11:30:24;;;;;;;0.35;0.35;;;;;;;29.10;29.23;101089.09;6555312;27;33005;-85
2022/05/09 11:33:56;;;;;;;0.50;0.50;;;;;;;30.18;27.18;101089.19;6555235;27;33159;-85
2022/05/09 11:37:04;;;;;;;2.05;0.80;;;;;;;30.98;25.45;101073.06;6577424;27;33785;-86
2022/05/09 11:40:18;;;;;;;1.30;0.80;;;;;;;31.83;24.17;101063.78;6577130;27;34164;-85
2022/05/09 11:43:37;;;;;;;0.05;0.05;;;;;;;32.16;24.01;101061.81;6578788;27;34227;-86
2022/05/09 11:47:01;;;;;;;0.50;0.50;;;;;;;32.77;22.37;101061.81;6557416;27;34513;-86
2022/05/09 11:50:20;;;;;;;0.55;0.55;;;;;;;32.24;24.88;101066.69;6556849;26;32581;-85
2022/05/09 11:53:26;;;;;;;0.43;0.40;;;;;;;30.28;28.14;101079.97;6574265;27;34084;-86
2022/05/09 11:56:31;;;;;;;0.65;0.50;;;;;;;28.36;29.33;101076.00;6577504;27;34514;-86
2022/05/09 11:59:36;;;;;;;0.52;0.52;;;;;;;27.59;31.09;101079.59;6563391;27;32463;-86
2022/05/09 12:02:43;;;;;;;0.60;0.60;;;;;;;26.94;32.38;101083.81;6567290;27;32650;-85
2022/05/09 12:05:59;;;;;;;1.05;0.60;;;;;;;25.95;33.49;101086.19;6576632;27;33922;-85
2022/05/09 12:09:08;;;;;;;0.55;0.55;;;;;;;28.44;30.51;101084.59;6556172;27;33270;-86
2022/05/09 12:12:37;;;;;;;0.88;0.75;;;;;;;31.22;26.85;101081.41;6556361;27;32705;-85
2022/05/09 12:15:48;;;;;;;0.80;0.80;;;;;;;33.35;23.60;101087.06;6555104;27;34193;-85
2022/05/09 12:18:59;;;;;;;0.50;0.50;;;;;;;32.10;24.46;101087.31;6582064;27;34932;-85
2022/05/09 12:22:35;;;;;;;0.50;0.50;;;;;;;30.09;27.25;101088.16;6557636;26;33940;-85
2022/05/09 12:25:48;;;;;;;0.07;0.07;;;;;;;29.00;29.34;101091.88;6576158;27;34161;-89
2022/05/09 12:28:50;;;;;;;0.20;0.20;;;;;;;27.90;30.27;101099.00;6576330;27;34013;-85
2022/05/09 12:31:59;;;;;;;0.62;0.30;;;;;;;26.28;35.90;101108.25;6555607;27;34118;-85
2022/05/09 12:35:07;;;;;;;0.40;0.40;;;;;;;23.84;45.39;101113.09;6556287;27;32214;-86
2022/05/09 12:38:35;;;;;;;0.10;0.10;;;;;;;20.53;57.65;101130.12;6555093;26;32827;-85
2022/05/09 12:41:42;;;;;;;0.10;0.10;;;;;;;18.85;66.54;101138.63;6555552;27;32797;-85
2022/05/09 12:44:48;;;;;;;0.45;0.30;;;;;;;18.07;72.99;101119.38;6575824;27;33551;-86
2022/05/09 12:47:54;;;;;;;0.50;0.50;;;;;;;17.83;82.65;101126.28;6575869;27;33784;-86
2022/05/09 12:51:06;;;;;;;0.60;0.60;;;;;;;17.61;83.98;101109.25;6576011;27;35137;-85
2022/05/09 12:54:11;;;;;;;0.75;0.75;;;;;;;17.38;80.61;101102.28;6555221;27;32823;-85
2022/05/09 12:57:14;;;;;;;5.80;2.60;;;;;;;17.06;93.96;101106.56;6575932;27;33694;-85
2022/05/09 13:00:22;;;;;;;8.63;3.10;;;;;;;17.06;100.00;101094.84;6546530;27;32637;-85
2022/05/09 13:03:56;;;;;;;4.68;2.95;;;;;;;16.91;92.98;101086.84;6546172;27;32401;-85
2022/05/09 13:07:08;;;;;;;3.53;3.17;;;;;;;16.81;98.97;101094.50;6548740;27;34003;-83
2022/05/09 13:10:14;;;;;;;5.32;2.85;;;;;;;16.77;100.00;101075.88;6548022;27;34258;-84
2022/05/09 13:13:32;;;;;;;3.20;2.90;;;;;;;16.69;95.06;101072.44;6555645;27;33947;-84
2022/05/09 13:16:41;;;;;;;2.87;2.67;;;;;;;16.73;99.58;101080.03;6548146;27;32377;-86
2022/05/09 13:19:52;;;;;;;2.22;2.03;;;;;;;16.78;98.94;101077.53;6547304;27;32861;-85
2022/05/09 13:22:57;;;;;;;2.80;1.90;;;;;;;16.98;98.44;101074.91;6547455;27;32980;-85
2022/05/09 13:26:04;;;;;;;2.47;1.87;;;;;;;17.23;95.57;101071.69;6547772;27;33775;-83
2022/05/09 13:29:09;;;;;;;2.28;1.90;;;;;;;17.46;97.33;101065.84;6547234;27;34396;-85
2022/05/09 13:32:24;;;;;;;3.92;1.85;;;;;;;17.63;93.85;101066.31;6552085;27;34420;-85
2022/05/09 13:35:32;;;;;;;2.67;2.05;;;;;;;17.82;84.35;101057.34;6559644;27;32618;-84
2022/05/09 13:38:38;;;;;;;2.17;1.90;;;;;;;17.96;91.98;101058.22;6555438;27;34247;-85
2022/05/09 13:41:44;;;;;;;1.65;1.52;;;;;;;18.21;88.62;101052.94;6547686;27;33617;-85
2022/05/09 13:44:48;;;;;;;3.10;1.70;;;;;;;18.48;87.11;101045.53;6545861;27;33257;-83
2022/05/09 13:47:55;;;;;;;3.42;2.28;;;;;;;18.67;85.72;101048.44;6550362;27;35182;-84
2022/05/09 13:50:59;;;;;;;2.30;2.08;;;;;;;18.96;82.52;101044.38;6547215;27;33822;-84
2022/05/09 13:54:06;;;;;;;2.22;2.03;;;;;;;19.38;84.56;101044.75;6546161;27;32393;-85
2022/05/09 13:57:09;;;;;;;2.80;1.85;;;;;;;19.77;76.77;101042.81;6546133;27;33867;-83
2022/05/09 14:00:23;;;;;;;1.77;1.58;;;;;;;20.21;78.22;101043.69;6546968;27;34394;-84
2022/05/09 14:03:37;;;;;;;2.58;1.80;;;;;;;20.23;77.81;101044.31;6546547;27;33207;-83
2022/05/09 14:06:41;;;;;;;1.60;1.45;;;;;;;20.34;75.19;101049.06;6548560;27;33718;-84
2022/05/09 14:09:45;;;;;;;1.52;1.42;;;;;;;20.72;76.17;101042.56;6550691;27;33623;-84
2022/05/09 14:12:48;;;;;;;1.67;1.58;;;;;;;21.30;71.21;101055.72;6547555;27;32464;-84
2022/05/09 14:15:58;;;;;;;1.60;1.50;;;;;;;21.99;69.28;101044.34;6550298;27;33391;-84
2022/05/09 14:19:04;;;;;;;1.50;1.17;;;;;;;22.52;57.91;101043.37;6547632;27;32816;-84
2022/05/09 14:22:11;;;;;;;0.75;0.65;;;;;;;23.23;53.54;101044.06;6550073;27;34602;-87
2022/05/09 14:32:06;;;;;;;1.52;1.20;;;;;;;22.79;58.79;101054.69;6558120;27;34701;-88
2022/05/09 14:35:11;;;;;;;1.08;1.00;;;;;;;22.52;55.68;101051.63;6554362;27;32470;-87
2022/05/09 14:38:33;;;;;;;0.80;0.80;;;;;;;22.14;58.36;101052.91;6559592;27;32212;-87
2022/05/09 14:41:36;;;;;;;2.12;1.42;;;;;;;22.11;56.06;101053.41;6561792;27;33885;-87
2022/05/09 14:44:42;;;;;;;1.85;0.98;;;;;;;22.37;55.64;101052.12;6559443;27;34827;-88
2022/05/09 14:47:51;;;;;;;1.30;1.10;;;;;;;22.58;54.94;101047.91;6553016;27;32591;-88
2022/05/09 14:50:57;;;;;;;0.43;0.43;;;;;;;22.45;54.02;101051.75;6557421;27;34337;-88
2022/05/09 14:54:01;;;;;;;0.65;0.57;;;;;;;22.38;55.82;101040.91;6550727;27;34462;-88
2022/05/09 14:57:26;;;;;;;0.90;0.68;;;;;;;22.04;55.19;101044.47;6546675;27;32599;-88
2022/05/09 15:00:35;;;;;;;0.93;0.93;;;;;;;21.82;55.12;101038.69;6550120;27;33726;-88
2022/05/09 15:03:42;;;;;;;0.82;0.70;;;;;;;21.63;58.16;101041.53;6555439;27;34110;-88
2022/05/09 15:06:47;;;;;;;0.95;0.77;;;;;;;21.47;56.48;101031.28;6548976;27;33778;-88
2022/05/09 15:09:50;;;;;;;1.67;1.20;;;;;;;21.29;57.45;101043.94;6547238;27;34392;-88
2022/05/09 15:12:55;;;;;;;0.70;0.70;;;;;;;21.18;57.40;101046.63;6546490;27;32791;-88
2022/05/09 15:16:04;;;;;;;0.93;0.93;;;;;;;21.11;59.19;101048.59;6548040;27;34431;-92
2022/05/09 15:19:07;;;;;;;0.80;0.80;;;;;;;21.07;57.95;101045.50;6548599;27;34658;-89
2022/05/09 15:22:13;;;;;;;1.95;1.50;;;;;;;21.15;57.28;101050.66;6546155;27;33944;-89
2022/05/09 15:25:17;;;;;;;0.77;0.77;;;;;;;20.95;59.54;101052.81;6547759;27;32962;-89
2022/05/09 15:28:21;;;;;;;1.23;1.02;;;;;;;20.68;61.13;101050.41;6550907;27;34772;-88
2022/05/09 15:31:37;;;;;;;1.12;1.10;;;;;;;20.54;62.83;101049.72;6551571;27;34175;-89
2022/05/09 15:34:41;;;;;;;1.55;1.45;;;;;;;20.16;65.10;101050.69;6547049;27;32757;-88
2022/05/09 15:37:43;;;;;;;1.73;1.52;;;;;;;20.11;67.26;101058.72;6548513;27;33986;-89
2022/05/09 15:41:02;;;;;;;1.77;1.30;;;;;;;20.15;65.78;101057.22;6546918;27;32437;-88
2022/05/09 15:44:16;;;;;;;;;;;;;;;20.10;67.61;101062.53;6548955;27;33993;-89
2022/05/09 15:47:19;;;;;;;1.75;1.65;;;;;;;19.88;65.80;101062.06;6547350;27;35019;-89
2022/05/09 15:50:22;;;;;;;1.60;1.50;;;;;;;19.93;66.88;101058.69;6547387;27;32467;-89
2022/05/09 15:53:26;;;;;;;1.52;1.42;;;;;;;19.96;67.78;101057.41;6546915;27;33831;-89
